sensor_id;sensor_type;location;lat;lon;timestamp;P1;durP1;ratioP1;P2;durP2;ratioP2
46561;SDS011;32289;42.688;23.330;2024-02-04T00:02:39;4.38;;;2.03;;
46561;SDS011;32289;42.688;23.330;2024-02-04T00:06:20;6.45;;;2.03;;
46561;SDS011;32289;42.688;23.330;2024-02-04T00:10:01;7.10;;;2.70;;
46561;SDS011;32289;42.688;23.330;2024-02-04T00:13:42;4.75;;;2.30;;
46561;SDS011;32289;42.688;23.330;2024-02-04T00:17:23;3.75;;;2.00;;
46561;SDS011;32289;42.688;23.330;2024-02-04T00:21:09;5.15;;;2.40;;
46561;SDS011;32289;42.688;23.330;2024-02-04T00:24:50;5.85;;;2.53;;
46561;SDS011;32289;42.688;23.330;2024-02-04T00:28:31;6.07;;;2.88;;
46561;SDS011;32289;42.688;23.330;2024-02-04T00:32:11;5.82;;;2.72;;
46561;SDS011;32289;42.688;23.330;2024-02-04T00:35:52;7.97;;;2.55;;
46561;SDS011;32289;42.688;23.330;2024-02-04T00:39:33;4.35;;;2.58;;
46561;SDS011;32289;42.688;23.330;2024-02-04T00:43:13;10.20;;;2.47;;
46561;SDS011;32289;42.688;23.330;2024-02-04T00:46:54;4.95;;;2.38;;
46561;SDS011;32289;42.688;23.330;2024-02-04T00:50:35;4.95;;;2.53;;
46561;SDS011;32289;42.688;23.330;2024-02-04T00:54:16;6.60;;;3.22;;
46561;SDS011;32289;42.688;23.330;2024-02-04T00:57:57;6.57;;;2.38;;
46561;SDS011;32289;42.688;23.330;2024-02-04T01:01:40;7.55;;;2.65;;
46561;SDS011;32289;42.688;23.330;2024-02-04T01:05:21;3.65;;;2.20;;
46561;SDS011;32289;42.688;23.330;2024-02-04T01:09:01;5.10;;;2.63;;
46561;SDS011;32289;42.688;23.330;2024-02-04T01:12:42;5.32;;;2.08;;
46561;SDS011;32289;42.688;23.330;2024-02-04T01:16:23;5.07;;;2.10;;
46561;SDS011;32289;42.688;23.330;2024-02-04T01:20:04;5.93;;;2.30;;
46561;SDS011;32289;42.688;23.330;2024-02-04T01:23:46;4.90;;;2.50;;
46561;SDS011;32289;42.688;23.330;2024-02-04T01:27:27;5.13;;;2.53;;
46561;SDS011;32289;42.688;23.330;2024-02-04T01:31:07;4.93;;;2.35;;
46561;SDS011;32289;42.688;23.330;2024-02-04T01:34:48;5.90;;;2.42;;
46561;SDS011;32289;42.688;23.330;2024-02-04T01:38:29;4.18;;;2.38;;
46561;SDS011;32289;42.688;23.330;2024-02-04T01:42:09;6.32;;;2.17;;
46561;SDS011;32289;42.688;23.330;2024-02-04T01:45:50;4.18;;;2.17;;
46561;SDS011;32289;42.688;23.330;2024-02-04T01:49:33;6.88;;;2.15;;
46561;SDS011;32289;42.688;23.330;2024-02-04T01:53:14;4.72;;;1.98;;
46561;SDS011;32289;42.688;23.330;2024-02-04T01:56:58;5.10;;;1.98;;
46561;SDS011;32289;42.688;23.330;2024-02-04T02:00:41;4.35;;;2.13;;
46561;SDS011;32289;42.688;23.330;2024-02-04T02:04:23;7.80;;;2.03;;
46561;SDS011;32289;42.688;23.330;2024-02-04T02:08:05;4.43;;;2.22;;
46561;SDS011;32289;42.688;23.330;2024-02-04T02:12:09;7.43;;;1.98;;
46561;SDS011;32289;42.688;23.330;2024-02-04T02:15:55;7.32;;;2.10;;
46561;SDS011;32289;42.688;23.330;2024-02-04T02:19:47;5.05;;;2.05;;
46561;SDS011;32289;42.688;23.330;2024-02-04T02:24:11;5.00;;;1.50;;
46561;SDS011;32289;42.688;23.330;2024-02-04T02:28:02;4.40;;;1.75;;
46561;SDS011;32289;42.688;23.330;2024-02-04T02:31:42;5.13;;;2.05;;
46561;SDS011;32289;42.688;23.330;2024-02-04T02:35:23;4.85;;;1.50;;
46561;SDS011;32289;42.688;23.330;2024-02-04T02:39:15;4.78;;;2.40;;
46561;SDS011;32289;42.688;23.330;2024-02-04T02:43:01;4.07;;;2.10;;
46561;SDS011;32289;42.688;23.330;2024-02-04T02:46:43;3.90;;;2.00;;
46561;SDS011;32289;42.688;23.330;2024-02-04T02:50:25;4.18;;;2.45;;
46561;SDS011;32289;42.688;23.330;2024-02-04T02:54:06;4.45;;;2.28;;
46561;SDS011;32289;42.688;23.330;2024-02-04T02:57:47;3.75;;;2.28;;
46561;SDS011;32289;42.688;23.330;2024-02-04T03:01:28;5.53;;;2.20;;
46561;SDS011;32289;42.688;23.330;2024-02-04T03:05:09;6.68;;;2.42;;
46561;SDS011;32289;42.688;23.330;2024-02-04T03:08:50;5.88;;;2.25;;
46561;SDS011;32289;42.688;23.330;2024-02-04T03:12:30;5.70;;;2.33;;
46561;SDS011;32289;42.688;23.330;2024-02-04T03:16:11;4.78;;;1.83;;
46561;SDS011;32289;42.688;23.330;2024-02-04T03:19:52;4.40;;;1.70;;
46561;SDS011;32289;42.688;23.330;2024-02-04T03:23:36;5.00;;;2.20;;
46561;SDS011;32289;42.688;23.330;2024-02-04T03:27:17;4.97;;;1.92;;
46561;SDS011;32289;42.688;23.330;2024-02-04T03:30:58;4.65;;;2.20;;
46561;SDS011;32289;42.688;23.330;2024-02-04T03:34:42;5.28;;;2.10;;
46561;SDS011;32289;42.688;23.330;2024-02-04T03:38:23;4.65;;;1.95;;
46561;SDS011;32289;42.688;23.330;2024-02-04T03:42:04;3.92;;;2.00;;
46561;SDS011;32289;42.688;23.330;2024-02-04T03:45:44;4.88;;;2.03;;
46561;SDS011;32289;42.688;23.330;2024-02-04T03:49:25;5.22;;;1.80;;
46561;SDS011;32289;42.688;23.330;2024-02-04T03:53:06;7.45;;;1.75;;
46561;SDS011;32289;42.688;23.330;2024-02-04T03:56:47;4.55;;;1.67;;
46561;SDS011;32289;42.688;23.330;2024-02-04T04:00:27;8.35;;;2.45;;
46561;SDS011;32289;42.688;23.330;2024-02-04T04:04:08;4.95;;;1.95;;
46561;SDS011;32289;42.688;23.330;2024-02-04T04:07:49;4.78;;;2.00;;
46561;SDS011;32289;42.688;23.330;2024-02-04T04:11:29;3.78;;;1.42;;
46561;SDS011;32289;42.688;23.330;2024-02-04T04:15:10;4.18;;;1.73;;
46561;SDS011;32289;42.688;23.330;2024-02-04T04:18:51;4.28;;;1.90;;
46561;SDS011;32289;42.688;23.330;2024-02-04T04:22:31;3.58;;;2.00;;
46561;SDS011;32289;42.688;23.330;2024-02-04T04:26:12;4.40;;;1.75;;
46561;SDS011;32289;42.688;23.330;2024-02-04T04:29:53;3.33;;;1.73;;
46561;SDS011;32289;42.688;23.330;2024-02-04T04:33:33;4.28;;;2.25;;
46561;SDS011;32289;42.688;23.330;2024-02-04T04:37:15;5.20;;;2.45;;
46561;SDS011;32289;42.688;23.330;2024-02-04T04:40:56;4.80;;;2.22;;
46561;SDS011;32289;42.688;23.330;2024-02-04T04:44:36;4.68;;;2.00;;
46561;SDS011;32289;42.688;23.330;2024-02-04T04:48:17;4.13;;;1.75;;
46561;SDS011;32289;42.688;23.330;2024-02-04T04:52:16;5.63;;;2.00;;
46561;SDS011;32289;42.688;23.330;2024-02-04T04:55:57;6.05;;;2.05;;
46561;SDS011;32289;42.688;23.330;2024-02-04T04:59:38;6.30;;;2.53;;
46561;SDS011;32289;42.688;23.330;2024-02-04T05:03:19;4.65;;;2.20;;
46561;SDS011;32289;42.688;23.330;2024-02-04T05:07:00;6.05;;;2.97;;
46561;SDS011;32289;42.688;23.330;2024-02-04T05:10:41;7.05;;;2.17;;
46561;SDS011;32289;42.688;23.330;2024-02-04T05:14:21;4.55;;;2.55;;
46561;SDS011;32289;42.688;23.330;2024-02-04T05:18:02;6.03;;;1.92;;
46561;SDS011;32289;42.688;23.330;2024-02-04T05:21:44;5.13;;;2.20;;
46561;SDS011;32289;42.688;23.330;2024-02-04T05:25:24;5.88;;;2.10;;
46561;SDS011;32289;42.688;23.330;2024-02-04T05:29:06;5.63;;;2.55;;
46561;SDS011;32289;42.688;23.330;2024-02-04T05:32:47;3.90;;;2.13;;
46561;SDS011;32289;42.688;23.330;2024-02-04T05:36:27;4.38;;;1.95;;
46561;SDS011;32289;42.688;23.330;2024-02-04T05:40:08;3.53;;;2.00;;
46561;SDS011;32289;42.688;23.330;2024-02-04T05:43:49;8.45;;;2.08;;
46561;SDS011;32289;42.688;23.330;2024-02-04T05:47:30;6.50;;;2.10;;
46561;SDS011;32289;42.688;23.330;2024-02-04T05:51:11;4.15;;;2.22;;
46561;SDS011;32289;42.688;23.330;2024-02-04T05:54:52;4.93;;;2.08;;
46561;SDS011;32289;42.688;23.330;2024-02-04T05:58:33;8.70;;;2.67;;
46561;SDS011;32289;42.688;23.330;2024-02-04T06:02:14;6.40;;;2.30;;
46561;SDS011;32289;42.688;23.330;2024-02-04T06:05:54;6.82;;;2.58;;
46561;SDS011;32289;42.688;23.330;2024-02-04T06:09:35;7.95;;;2.53;;
46561;SDS011;32289;42.688;23.330;2024-02-04T06:13:16;6.55;;;2.42;;
46561;SDS011;32289;42.688;23.330;2024-02-04T06:16:56;4.90;;;2.15;;
46561;SDS011;32289;42.688;23.330;2024-02-04T06:20:37;4.60;;;1.77;;
46561;SDS011;32289;42.688;23.330;2024-02-04T06:24:18;8.82;;;2.55;;
46561;SDS011;32289;42.688;23.330;2024-02-04T06:28:00;9.40;;;2.35;;
46561;SDS011;32289;42.688;23.330;2024-02-04T06:31:43;8.02;;;2.50;;
46561;SDS011;32289;42.688;23.330;2024-02-04T06:35:25;8.40;;;2.35;;
46561;SDS011;32289;42.688;23.330;2024-02-04T06:39:06;5.05;;;2.65;;
46561;SDS011;32289;42.688;23.330;2024-02-04T06:42:48;7.68;;;2.85;;
46561;SDS011;32289;42.688;23.330;2024-02-04T06:46:29;5.35;;;2.20;;
46561;SDS011;32289;42.688;23.330;2024-02-04T06:50:09;7.15;;;2.75;;
46561;SDS011;32289;42.688;23.330;2024-02-04T06:53:53;5.13;;;2.30;;
46561;SDS011;32289;42.688;23.330;2024-02-04T06:57:34;5.22;;;2.40;;
46561;SDS011;32289;42.688;23.330;2024-02-04T07:01:15;13.30;;;2.88;;
46561;SDS011;32289;42.688;23.330;2024-02-04T07:04:56;5.80;;;2.70;;
46561;SDS011;32289;42.688;23.330;2024-02-04T07:08:37;4.72;;;2.40;;
46561;SDS011;32289;42.688;23.330;2024-02-04T07:12:17;5.47;;;2.25;;
46561;SDS011;32289;42.688;23.330;2024-02-04T07:15:58;4.28;;;2.33;;
46561;SDS011;32289;42.688;23.330;2024-02-04T07:19:39;5.68;;;3.10;;
46561;SDS011;32289;42.688;23.330;2024-02-04T07:23:19;6.32;;;2.72;;
46561;SDS011;32289;42.688;23.330;2024-02-04T07:27:01;4.50;;;2.15;;
46561;SDS011;32289;42.688;23.330;2024-02-04T07:30:42;4.88;;;2.55;;
46561;SDS011;32289;42.688;23.330;2024-02-04T07:34:22;5.47;;;2.03;;
46561;SDS011;32289;42.688;23.330;2024-02-04T07:38:03;8.38;;;5.00;;
46561;SDS011;32289;42.688;23.330;2024-02-04T07:41:44;5.07;;;2.35;;
46561;SDS011;32289;42.688;23.330;2024-02-04T07:45:24;5.57;;;2.33;;
46561;SDS011;32289;42.688;23.330;2024-02-04T07:49:05;7.15;;;3.10;;
46561;SDS011;32289;42.688;23.330;2024-02-04T07:52:46;5.35;;;3.05;;
46561;SDS011;32289;42.688;23.330;2024-02-04T07:56:27;7.45;;;2.70;;
46561;SDS011;32289;42.688;23.330;2024-02-04T08:00:07;6.40;;;2.67;;
46561;SDS011;32289;42.688;23.330;2024-02-04T08:03:50;5.10;;;2.53;;
46561;SDS011;32289;42.688;23.330;2024-02-04T08:07:31;5.90;;;2.00;;
46561;SDS011;32289;42.688;23.330;2024-02-04T08:11:15;12.85;;;3.35;;
46561;SDS011;32289;42.688;23.330;2024-02-04T08:14:57;5.13;;;2.03;;
46561;SDS011;32289;42.688;23.330;2024-02-04T08:18:37;4.85;;;2.03;;
46561;SDS011;32289;42.688;23.330;2024-02-04T08:22:18;6.38;;;2.58;;
46561;SDS011;32289;42.688;23.330;2024-02-04T08:25:59;8.10;;;2.60;;
46561;SDS011;32289;42.688;23.330;2024-02-04T08:29:40;11.10;;;2.47;;
46561;SDS011;32289;42.688;23.330;2024-02-04T08:33:21;5.10;;;2.35;;
46561;SDS011;32289;42.688;23.330;2024-02-04T08:37:01;3.55;;;2.03;;
46561;SDS011;32289;42.688;23.330;2024-02-04T08:40:43;6.75;;;2.35;;
46561;SDS011;32289;42.688;23.330;2024-02-04T08:44:23;4.05;;;2.03;;
46561;SDS011;32289;42.688;23.330;2024-02-04T08:48:04;4.90;;;2.30;;
46561;SDS011;32289;42.688;23.330;2024-02-04T08:51:45;8.45;;;1.83;;
46561;SDS011;32289;42.688;23.330;2024-02-04T08:55:26;4.63;;;2.10;;
46561;SDS011;32289;42.688;23.330;2024-02-04T08:59:07;7.85;;;2.58;;
46561;SDS011;32289;42.688;23.330;2024-02-04T09:02:48;5.13;;;1.63;;
46561;SDS011;32289;42.688;23.330;2024-02-04T09:06:28;6.45;;;2.58;;
46561;SDS011;32289;42.688;23.330;2024-02-04T09:10:09;5.18;;;2.17;;
46561;SDS011;32289;42.688;23.330;2024-02-04T09:13:50;3.95;;;1.92;;
46561;SDS011;32289;42.688;23.330;2024-02-04T09:17:31;7.00;;;1.73;;
46561;SDS011;32289;42.688;23.330;2024-02-04T09:21:13;6.50;;;2.40;;
46561;SDS011;32289;42.688;23.330;2024-02-04T09:24:54;8.50;;;2.25;;
46561;SDS011;32289;42.688;23.330;2024-02-04T09:28:34;7.20;;;3.58;;
46561;SDS011;32289;42.688;23.330;2024-02-04T09:32:15;8.13;;;3.25;;
46561;SDS011;32289;42.688;23.330;2024-02-04T09:35:56;4.60;;;2.17;;
46561;SDS011;32289;42.688;23.330;2024-02-04T09:39:36;4.50;;;1.70;;
46561;SDS011;32289;42.688;23.330;2024-02-04T09:43:17;6.35;;;2.30;;
46561;SDS011;32289;42.688;23.330;2024-02-04T09:46:59;3.50;;;1.80;;
46561;SDS011;32289;42.688;23.330;2024-02-04T09:50:41;4.65;;;1.52;;
46561;SDS011;32289;42.688;23.330;2024-02-04T09:54:21;4.57;;;2.00;;
46561;SDS011;32289;42.688;23.330;2024-02-04T09:58:03;4.82;;;1.50;;
46561;SDS011;32289;42.688;23.330;2024-02-04T10:01:44;5.60;;;2.70;;
46561;SDS011;32289;42.688;23.330;2024-02-04T10:05:27;3.95;;;2.00;;
46561;SDS011;32289;42.688;23.330;2024-02-04T10:09:07;4.43;;;2.00;;
46561;SDS011;32289;42.688;23.330;2024-02-04T10:12:48;2.47;;;1.40;;
46561;SDS011;32289;42.688;23.330;2024-02-04T10:16:29;4.30;;;1.70;;
46561;SDS011;32289;42.688;23.330;2024-02-04T10:20:10;4.60;;;1.60;;
46561;SDS011;32289;42.688;23.330;2024-02-04T10:23:52;4.43;;;2.20;;
46561;SDS011;32289;42.688;23.330;2024-02-04T10:27:34;7.03;;;2.42;;
46561;SDS011;32289;42.688;23.330;2024-02-04T10:31:15;3.72;;;1.73;;
46561;SDS011;32289;42.688;23.330;2024-02-04T10:34:57;5.13;;;1.73;;
46561;SDS011;32289;42.688;23.330;2024-02-04T10:38:38;4.45;;;1.83;;
46561;SDS011;32289;42.688;23.330;2024-02-04T10:42:21;9.18;;;1.92;;
46561;SDS011;32289;42.688;23.330;2024-02-04T10:46:09;3.05;;;2.03;;
46561;SDS011;32289;42.688;23.330;2024-02-04T10:49:59;6.65;;;2.63;;
46561;SDS011;32289;42.688;23.330;2024-02-04T10:53:43;4.88;;;2.50;;
46561;SDS011;32289;42.688;23.330;2024-02-04T10:57:25;5.78;;;2.90;;
46561;SDS011;32289;42.688;23.330;2024-02-04T11:01:07;5.13;;;2.33;;
46561;SDS011;32289;42.688;23.330;2024-02-04T11:04:48;7.65;;;1.38;;
46561;SDS011;32289;42.688;23.330;2024-02-04T11:08:30;6.03;;;1.77;;
46561;SDS011;32289;42.688;23.330;2024-02-04T11:12:11;2.90;;;1.30;;
46561;SDS011;32289;42.688;23.330;2024-02-04T11:15:55;2.63;;;1.50;;
46561;SDS011;32289;42.688;23.330;2024-02-04T11:19:52;3.90;;;1.75;;
46561;SDS011;32289;42.688;23.330;2024-02-04T11:27:50;4.22;;;2.00;;
46561;SDS011;32289;42.688;23.330;2024-02-04T11:31:31;5.25;;;1.48;;
46561;SDS011;32289;42.688;23.330;2024-02-04T11:35:12;6.75;;;1.90;;
46561;SDS011;32289;42.688;23.330;2024-02-04T11:38:52;4.70;;;1.80;;
46561;SDS011;32289;42.688;23.330;2024-02-04T11:42:33;6.22;;;2.30;;
46561;SDS011;32289;42.688;23.330;2024-02-04T11:46:17;4.63;;;1.70;;
46561;SDS011;32289;42.688;23.330;2024-02-04T11:50:00;3.92;;;1.70;;
46561;SDS011;32289;42.688;23.330;2024-02-04T11:53:41;5.00;;;1.92;;
46561;SDS011;32289;42.688;23.330;2024-02-04T11:57:23;9.38;;;1.65;;
46561;SDS011;32289;42.688;23.330;2024-02-04T12:01:04;4.55;;;2.13;;
46561;SDS011;32289;42.688;23.330;2024-02-04T12:04:44;6.65;;;2.17;;
46561;SDS011;32289;42.688;23.330;2024-02-04T12:08:26;5.28;;;1.52;;
46561;SDS011;32289;42.688;23.330;2024-02-04T12:12:08;7.68;;;3.03;;
46561;SDS011;32289;42.688;23.330;2024-02-04T12:15:49;5.15;;;1.92;;
46561;SDS011;32289;42.688;23.330;2024-02-04T12:19:30;8.73;;;2.75;;
46561;SDS011;32289;42.688;23.330;2024-02-04T12:23:11;3.70;;;1.80;;
46561;SDS011;32289;42.688;23.330;2024-02-04T12:26:53;5.05;;;2.85;;
46561;SDS011;32289;42.688;23.330;2024-02-04T12:30:33;4.07;;;1.40;;
46561;SDS011;32289;42.688;23.330;2024-02-04T12:34:14;5.28;;;1.52;;
46561;SDS011;32289;42.688;23.330;2024-02-04T12:37:55;2.85;;;1.20;;
46561;SDS011;32289;42.688;23.330;2024-02-04T12:41:37;2.22;;;1.15;;
46561;SDS011;32289;42.688;23.330;2024-02-04T12:45:18;6.50;;;2.20;;
46561;SDS011;32289;42.688;23.330;2024-02-04T12:48:58;6.13;;;2.47;;
46561;SDS011;32289;42.688;23.330;2024-02-04T12:52:39;6.22;;;1.77;;
46561;SDS011;32289;42.688;23.330;2024-02-04T12:56:20;6.72;;;2.30;;
46561;SDS011;32289;42.688;23.330;2024-02-04T13:00:05;4.57;;;2.05;;
46561;SDS011;32289;42.688;23.330;2024-02-04T13:03:46;4.35;;;1.77;;
46561;SDS011;32289;42.688;23.330;2024-02-04T13:07:30;3.92;;;1.92;;
46561;SDS011;32289;42.688;23.330;2024-02-04T13:11:10;4.55;;;2.08;;
46561;SDS011;32289;42.688;23.330;2024-02-04T13:14:51;2.78;;;1.40;;
46561;SDS011;32289;42.688;23.330;2024-02-04T13:18:32;2.63;;;1.40;;
46561;SDS011;32289;42.688;23.330;2024-02-04T13:22:13;4.78;;;2.65;;
46561;SDS011;32289;42.688;23.330;2024-02-04T13:25:54;6.25;;;2.05;;
46561;SDS011;32289;42.688;23.330;2024-02-04T13:29:35;9.00;;;3.75;;
46561;SDS011;32289;42.688;23.330;2024-02-04T13:33:16;8.13;;;3.30;;
46561;SDS011;32289;42.688;23.330;2024-02-04T13:36:56;3.75;;;1.80;;
46561;SDS011;32289;42.688;23.330;2024-02-04T13:40:38;5.35;;;2.10;;
46561;SDS011;32289;42.688;23.330;2024-02-04T13:44:20;6.85;;;3.40;;
46561;SDS011;32289;42.688;23.330;2024-02-04T13:48:01;6.88;;;1.60;;
46561;SDS011;32289;42.688;23.330;2024-02-04T13:51:41;4.10;;;1.80;;
46561;SDS011;32289;42.688;23.330;2024-02-04T13:55:22;5.03;;;1.98;;
46561;SDS011;32289;42.688;23.330;2024-02-04T13:59:04;3.42;;;1.65;;
46561;SDS011;32289;42.688;23.330;2024-02-04T14:02:46;4.60;;;2.78;;
46561;SDS011;32289;42.688;23.330;2024-02-04T14:06:27;4.53;;;2.22;;
46561;SDS011;32289;42.688;23.330;2024-02-04T14:10:07;11.35;;;2.33;;
46561;SDS011;32289;42.688;23.330;2024-02-04T14:13:51;6.47;;;1.70;;
46561;SDS011;32289;42.688;23.330;2024-02-04T14:17:32;6.38;;;2.13;;
46561;SDS011;32289;42.688;23.330;2024-02-04T14:21:13;5.47;;;1.85;;
46561;SDS011;32289;42.688;23.330;2024-02-04T14:24:56;4.75;;;1.65;;
46561;SDS011;32289;42.688;23.330;2024-02-04T14:28:37;3.03;;;1.42;;
46561;SDS011;32289;42.688;23.330;2024-02-04T14:32:21;3.42;;;1.40;;
46561;SDS011;32289;42.688;23.330;2024-02-04T14:36:02;4.63;;;2.00;;
46561;SDS011;32289;42.688;23.330;2024-02-04T14:39:43;3.58;;;1.67;;
46561;SDS011;32289;42.688;23.330;2024-02-04T14:43:24;4.13;;;1.73;;
46561;SDS011;32289;42.688;23.330;2024-02-04T14:47:05;2.60;;;1.42;;
46561;SDS011;32289;42.688;23.330;2024-02-04T14:50:46;9.73;;;4.18;;
46561;SDS011;32289;42.688;23.330;2024-02-04T14:54:28;6.93;;;2.55;;
46561;SDS011;32289;42.688;23.330;2024-02-04T14:58:10;6.63;;;3.35;;
46561;SDS011;32289;42.688;23.330;2024-02-04T15:01:50;4.82;;;2.33;;
46561;SDS011;32289;42.688;23.330;2024-02-04T15:05:31;5.15;;;1.98;;
46561;SDS011;32289;42.688;23.330;2024-02-04T15:09:12;5.10;;;2.33;;
46561;SDS011;32289;42.688;23.330;2024-02-04T15:12:54;6.82;;;2.67;;
46561;SDS011;32289;42.688;23.330;2024-02-04T15:16:35;5.13;;;1.90;;
46561;SDS011;32289;42.688;23.330;2024-02-04T15:20:18;6.75;;;3.20;;
46561;SDS011;32289;42.688;23.330;2024-02-04T15:24:01;9.35;;;3.75;;
46561;SDS011;32289;42.688;23.330;2024-02-04T15:27:44;5.15;;;1.90;;
46561;SDS011;32289;42.688;23.330;2024-02-04T15:31:25;7.90;;;2.30;;
46561;SDS011;32289;42.688;23.330;2024-02-04T15:35:08;4.88;;;2.50;;
46561;SDS011;32289;42.688;23.330;2024-02-04T15:38:49;7.07;;;2.67;;
46561;SDS011;32289;42.688;23.330;2024-02-04T15:42:30;9.88;;;2.50;;
46561;SDS011;32289;42.688;23.330;2024-02-04T15:46:11;5.38;;;2.20;;
46561;SDS011;32289;42.688;23.330;2024-02-04T15:49:52;5.55;;;2.42;;
46561;SDS011;32289;42.688;23.330;2024-02-04T15:53:33;6.63;;;2.97;;
46561;SDS011;32289;42.688;23.330;2024-02-04T15:57:14;3.08;;;1.80;;
46561;SDS011;32289;42.688;23.330;2024-02-04T16:00:58;12.38;;;4.95;;
46561;SDS011;32289;42.688;23.330;2024-02-04T16:04:39;6.63;;;2.70;;
46561;SDS011;32289;42.688;23.330;2024-02-04T16:08:20;8.38;;;3.83;;
46561;SDS011;32289;42.688;23.330;2024-02-04T16:12:04;6.60;;;2.83;;
46561;SDS011;32289;42.688;23.330;2024-02-04T16:16:04;5.75;;;3.00;;
46561;SDS011;32289;42.688;23.330;2024-02-04T16:19:49;10.20;;;3.15;;
46561;SDS011;32289;42.688;23.330;2024-02-04T16:23:33;11.55;;;3.08;;
46561;SDS011;32289;42.688;23.330;2024-02-04T16:27:13;5.15;;;2.15;;
46561;SDS011;32289;42.688;23.330;2024-02-04T16:30:55;6.63;;;2.53;;
46561;SDS011;32289;42.688;23.330;2024-02-04T16:34:35;10.07;;;3.15;;
46561;SDS011;32289;42.688;23.330;2024-02-04T16:38:16;9.13;;;3.20;;
46561;SDS011;32289;42.688;23.330;2024-02-04T16:41:57;6.80;;;3.65;;
46561;SDS011;32289;42.688;23.330;2024-02-04T16:45:37;8.43;;;2.75;;
46561;SDS011;32289;42.688;23.330;2024-02-04T16:49:19;5.85;;;2.85;;
46561;SDS011;32289;42.688;23.330;2024-02-04T16:53:00;9.20;;;2.85;;
46561;SDS011;32289;42.688;23.330;2024-02-04T16:56:42;8.55;;;3.30;;
46561;SDS011;32289;42.688;23.330;2024-02-04T17:00:25;7.30;;;2.60;;
46561;SDS011;32289;42.688;23.330;2024-02-04T17:04:07;4.70;;;2.22;;
46561;SDS011;32289;42.688;23.330;2024-02-04T17:07:48;5.88;;;2.42;;
46561;SDS011;32289;42.688;23.330;2024-02-04T17:11:29;5.72;;;1.85;;
46561;SDS011;32289;42.688;23.330;2024-02-04T17:15:10;9.98;;;3.80;;
46561;SDS011;32289;42.688;23.330;2024-02-04T17:19:09;10.10;;;4.00;;
46561;SDS011;32289;42.688;23.330;2024-02-04T17:23:14;7.10;;;2.53;;
46561;SDS011;32289;42.688;23.330;2024-02-04T17:26:59;5.10;;;1.73;;
46561;SDS011;32289;42.688;23.330;2024-02-04T17:30:44;4.70;;;2.30;;
46561;SDS011;32289;42.688;23.330;2024-02-04T17:38:35;4.60;;;2.20;;
46561;SDS011;32289;42.688;23.330;2024-02-04T17:42:17;5.53;;;1.98;;
46561;SDS011;32289;42.688;23.330;2024-02-04T17:45:58;10.63;;;2.90;;
46561;SDS011;32289;42.688;23.330;2024-02-04T17:49:39;11.88;;;6.55;;
46561;SDS011;32289;42.688;23.330;2024-02-04T17:53:19;12.25;;;3.85;;
46561;SDS011;32289;42.688;23.330;2024-02-04T17:57:00;8.85;;;3.22;;
46561;SDS011;32289;42.688;23.330;2024-02-04T18:00:48;9.77;;;3.42;;
46561;SDS011;32289;42.688;23.330;2024-02-04T18:04:29;12.40;;;2.72;;
46561;SDS011;32289;42.688;23.330;2024-02-04T18:08:12;9.48;;;3.35;;
46561;SDS011;32289;42.688;23.330;2024-02-04T18:11:54;10.48;;;4.30;;
46561;SDS011;32289;42.688;23.330;2024-02-04T18:15:34;10.98;;;4.55;;
46561;SDS011;32289;42.688;23.330;2024-02-04T18:19:15;16.48;;;4.03;;
46561;SDS011;32289;42.688;23.330;2024-02-04T18:22:56;8.10;;;3.70;;
46561;SDS011;32289;42.688;23.330;2024-02-04T18:26:36;7.07;;;3.67;;
46561;SDS011;32289;42.688;23.330;2024-02-04T18:34:07;7.43;;;3.25;;
46561;SDS011;32289;42.688;23.330;2024-02-04T18:37:48;5.60;;;3.08;;
46561;SDS011;32289;42.688;23.330;2024-02-04T18:41:29;6.43;;;3.75;;
46561;SDS011;32289;42.688;23.330;2024-02-04T18:45:10;6.60;;;3.17;;
46561;SDS011;32289;42.688;23.330;2024-02-04T18:48:51;7.95;;;3.50;;
46561;SDS011;32289;42.688;23.330;2024-02-04T18:52:32;5.80;;;3.22;;
46561;SDS011;32289;42.688;23.330;2024-02-04T18:56:18;10.30;;;2.85;;
46561;SDS011;32289;42.688;23.330;2024-02-04T18:59:58;9.55;;;4.55;;
46561;SDS011;32289;42.688;23.330;2024-02-04T19:03:39;10.23;;;4.55;;
46561;SDS011;32289;42.688;23.330;2024-02-04T19:07:19;7.82;;;4.30;;
46561;SDS011;32289;42.688;23.330;2024-02-04T19:11:00;8.43;;;4.15;;
46561;SDS011;32289;42.688;23.330;2024-02-04T19:14:41;10.88;;;3.80;;
46561;SDS011;32289;42.688;23.330;2024-02-04T19:18:22;9.10;;;4.47;;
46561;SDS011;32289;42.688;23.330;2024-02-04T19:22:03;12.65;;;4.82;;
46561;SDS011;32289;42.688;23.330;2024-02-04T19:25:43;9.80;;;4.25;;
46561;SDS011;32289;42.688;23.330;2024-02-04T19:29:24;6.55;;;3.40;;
46561;SDS011;32289;42.688;23.330;2024-02-04T19:33:06;10.82;;;3.95;;
46561;SDS011;32289;42.688;23.330;2024-02-04T19:36:47;10.27;;;4.03;;
46561;SDS011;32289;42.688;23.330;2024-02-04T19:40:27;8.52;;;3.65;;
46561;SDS011;32289;42.688;23.330;2024-02-04T19:44:08;9.38;;;3.75;;
46561;SDS011;32289;42.688;23.330;2024-02-04T19:47:49;6.20;;;3.17;;
46561;SDS011;32289;42.688;23.330;2024-02-04T19:51:30;7.65;;;3.47;;
46561;SDS011;32289;42.688;23.330;2024-02-04T19:55:11;10.13;;;4.28;;
46561;SDS011;32289;42.688;23.330;2024-02-04T19:58:53;13.68;;;4.40;;
46561;SDS011;32289;42.688;23.330;2024-02-04T20:02:33;8.85;;;3.97;;
46561;SDS011;32289;42.688;23.330;2024-02-04T20:06:14;8.07;;;3.60;;
46561;SDS011;32289;42.688;23.330;2024-02-04T20:09:59;8.25;;;4.00;;
46561;SDS011;32289;42.688;23.330;2024-02-04T20:13:40;7.82;;;3.35;;
46561;SDS011;32289;42.688;23.330;2024-02-04T20:17:22;6.03;;;3.03;;
46561;SDS011;32289;42.688;23.330;2024-02-04T20:21:03;7.28;;;3.15;;
46561;SDS011;32289;42.688;23.330;2024-02-04T20:24:44;12.43;;;3.17;;
46561;SDS011;32289;42.688;23.330;2024-02-04T20:28:25;8.50;;;3.28;;
46561;SDS011;32289;42.688;23.330;2024-02-04T20:32:08;11.38;;;3.40;;
46561;SDS011;32289;42.688;23.330;2024-02-04T20:35:49;7.13;;;3.10;;
46561;SDS011;32289;42.688;23.330;2024-02-04T20:39:30;7.88;;;3.55;;
46561;SDS011;32289;42.688;23.330;2024-02-04T20:43:10;7.20;;;3.33;;
46561;SDS011;32289;42.688;23.330;2024-02-04T20:46:51;10.10;;;4.35;;
46561;SDS011;32289;42.688;23.330;2024-02-04T20:50:32;9.35;;;3.80;;
46561;SDS011;32289;42.688;23.330;2024-02-04T20:54:13;14.18;;;4.35;;
46561;SDS011;32289;42.688;23.330;2024-02-04T20:57:55;7.93;;;3.38;;
46561;SDS011;32289;42.688;23.330;2024-02-04T21:01:37;6.82;;;3.80;;
46561;SDS011;32289;42.688;23.330;2024-02-04T21:05:20;9.32;;;3.47;;
46561;SDS011;32289;42.688;23.330;2024-02-04T21:09:01;6.30;;;3.03;;
46561;SDS011;32289;42.688;23.330;2024-02-04T21:12:44;6.20;;;2.42;;
46561;SDS011;32289;42.688;23.330;2024-02-04T21:16:25;6.20;;;2.50;;
46561;SDS011;32289;42.688;23.330;2024-02-04T21:20:06;5.22;;;2.85;;
46561;SDS011;32289;42.688;23.330;2024-02-04T21:23:47;5.18;;;3.08;;
46561;SDS011;32289;42.688;23.330;2024-02-04T21:27:28;6.63;;;3.30;;
46561;SDS011;32289;42.688;23.330;2024-02-04T21:31:09;9.00;;;3.75;;
46561;SDS011;32289;42.688;23.330;2024-02-04T21:34:53;6.18;;;3.10;;
46561;SDS011;32289;42.688;23.330;2024-02-04T21:38:37;8.05;;;3.20;;
46561;SDS011;32289;42.688;23.330;2024-02-04T21:42:19;9.35;;;3.53;;
46561;SDS011;32289;42.688;23.330;2024-02-04T21:46:00;6.82;;;2.38;;
46561;SDS011;32289;42.688;23.330;2024-02-04T21:49:41;6.43;;;2.75;;
46561;SDS011;32289;42.688;23.330;2024-02-04T21:53:22;9.07;;;2.88;;
46561;SDS011;32289;42.688;23.330;2024-02-04T21:57:03;12.20;;;5.28;;
46561;SDS011;32289;42.688;23.330;2024-02-04T22:00:44;20.08;;;9.02;;
46561;SDS011;32289;42.688;23.330;2024-02-04T22:04:25;22.23;;;8.13;;
46561;SDS011;32289;42.688;23.330;2024-02-04T22:08:05;18.65;;;8.27;;